Time;durP1;ratioP1;P1;durP2;ratioP2;P2;SDS_P1;SDS_P2;PMS_P1;PMS_P2;Temp;Humidity;BMP_temperature;BMP_pressure;BME280_temperature;BME280_humidity;BME280_pressure;Samples;Min_cycle;Max_cycle;Signal;HPM_P1;HPM_P2
2021/12/31 00:01:32;;;;;;;166.48;11.90;;;;;;;-144.89;100.00;52852.59;5055379;28;20057;-74
2021/12/31 00:04:17;;;;;;;163.98;15.68;;;;;;;-144.89;100.00;52852.59;5040834;28;20056;-74
2021/12/31 00:07:01;;;;;;;173.25;13.70;;;;;;;-144.89;100.00;52852.59;5055614;28;20072;-74
2021/12/31 00:09:46;;;;;;;129.73;12.63;;;;;;;-144.89;100.00;52852.59;5054738;28;20389;-74
2021/12/31 00:12:31;;;;;;;143.80;11.43;;;;;;;-144.89;100.00;52852.59;5055442;28;20074;-74
2021/12/31 00:15:16;;;;;;;95.18;8.43;;;;;;;-144.89;100.00;52852.59;5054680;28;20049;-74
2021/12/31 00:18:00;;;;;;;183.98;10.43;;;;;;;-144.89;100.00;52852.59;5055344;28;20097;-74
2021/12/31 00:20:45;;;;;;;92.45;11.18;;;;;;;-144.89;100.00;52852.59;5054654;28;20447;-74
2021/12/31 00:23:29;;;;;;;89.90;11.60;;;;;;;-144.89;100.00;52852.59;5054487;28;20037;-74
2021/12/31 00:26:14;;;;;;;169.40;12.98;;;;;;;-144.89;100.00;52852.59;5055263;28;20044;-74
2021/12/31 00:28:58;;;;;;;127.07;10.75;;;;;;;-144.89;100.00;52852.59;5055205;28;20049;-75
2021/12/31 00:31:43;;;;;;;151.40;15.38;;;;;;;-144.89;100.00;52852.59;5040185;28;20041;-74
2021/12/31 00:34:28;;;;;;;161.68;28.17;;;;;;;-144.89;100.00;52852.59;5055093;28;20037;-74
2021/12/31 00:37:13;;;;;;;110.65;24.77;;;;;;;-144.89;100.00;52852.59;5054336;28;20129;-74
2021/12/31 00:39:57;;;;;;;137.70;20.88;;;;;;;-144.89;100.00;52852.59;5055160;28;20041;-74
2021/12/31 00:42:43;;;;;;;227.32;21.95;;;;;;;-144.89;100.00;52852.59;5055169;28;20399;-74
2021/12/31 00:45:28;;;;;;;164.27;19.75;;;;;;;-144.89;100.00;52852.59;5054294;28;20052;-74
2021/12/31 00:48:13;;;;;;;93.28;15.38;;;;;;;-144.89;100.00;52852.59;5054059;28;20064;-74
2021/12/31 00:50:57;;;;;;;85.75;13.68;;;;;;;-144.89;100.00;52852.59;5054086;28;20419;-74
2021/12/31 00:53:42;;;;;;;136.60;28.70;;;;;;;-144.89;100.00;52852.59;5054182;28;20045;-74
2021/12/31 00:56:26;;;;;;;116.53;21.10;;;;;;;-144.89;100.00;52852.59;5054075;28;20072;-74
2021/12/31 00:59:11;;;;;;;299.83;59.58;;;;;;;-144.89;100.00;52852.59;5053957;28;20052;-74
2021/12/31 01:01:55;;;;;;;198.77;51.22;;;;;;;-144.89;100.00;52852.59;5054686;28;20336;-74
2021/12/31 01:04:39;;;;;;;144.60;49.05;;;;;;;-144.89;100.00;52852.59;5053926;28;20049;-74
2021/12/31 01:07:24;;;;;;;156.13;36.15;;;;;;;-144.89;100.00;52852.59;5054583;28;20434;-75
2021/12/31 01:10:12;;;;;;;314.42;32.47;;;;;;;-144.89;100.00;52852.59;5053784;28;20144;-75
2021/12/31 01:12:57;;;;;;;151.00;22.65;;;;;;;-144.89;100.00;52852.59;5054655;28;20037;-75
2021/12/31 01:15:46;;;;;;;114.28;19.63;;;;;;;-144.89;100.00;52852.59;5054609;28;20048;-75
2021/12/31 01:21:41;;;;;;;274.45;29.52;;;;;;;-144.89;100.00;52852.59;5044242;28;20117;-75
2021/12/31 01:24:28;;;;;;;163.23;25.27;;;;;;;-144.89;100.00;52852.59;5053872;28;20118;-75
2021/12/31 01:27:14;;;;;;;236.43;29.08;;;;;;;-144.89;100.00;52852.59;5053641;28;20045;-75
2021/12/31 01:29:59;;;;;;;125.30;21.60;;;;;;;-144.89;100.00;52852.59;5039638;28;20358;-75
2021/12/31 01:32:44;;;;;;;126.43;19.88;;;;;;;-144.89;100.00;52852.59;5053519;28;20044;-75
2021/12/31 01:35:28;;;;;;;169.23;22.27;;;;;;;-144.89;100.00;52852.59;5053694;28;20044;-74
2021/12/31 01:38:12;;;;;;;125.03;14.27;;;;;;;-144.89;100.00;52852.59;5053991;28;20041;-75
2021/12/31 01:40:57;;;;;;;187.40;14.20;;;;;;;-144.89;100.00;52852.59;5053507;28;20045;-75
2021/12/31 01:43:42;;;;;;;203.95;11.50;;;;;;;-144.89;100.00;52852.59;5053290;28;20453;-74
2021/12/31 01:46:26;;;;;;;210.48;12.35;;;;;;;-144.89;100.00;52852.59;5053985;28;20041;-75
2021/12/31 01:49:19;;;;;;;201.02;10.15;;;;;;;-144.89;100.00;52852.59;5039228;28;20060;-75
2021/12/31 01:52:06;;;;;;;234.77;11.68;;;;;;;-144.89;100.00;52852.59;5053898;28;20422;-75
2021/12/31 01:54:52;;;;;;;133.45;7.57;;;;;;;-144.89;100.00;52852.59;5053304;28;20048;-74
2021/12/31 01:57:37;;;;;;;196.60;10.00;;;;;;;-144.89;100.00;52852.59;5053866;28;20037;-74
2021/12/31 02:00:22;;;;;;;146.65;7.97;;;;;;;-144.89;100.00;52852.59;5052858;28;20053;-75
2021/12/31 02:03:06;;;;;;;207.07;9.57;;;;;;;-144.89;100.00;52852.59;5053200;28;20041;-74
2021/12/31 02:05:51;;;;;;;185.18;10.60;;;;;;;-144.89;100.00;52852.59;5053688;28;20396;-74
2021/12/31 02:08:35;;;;;;;162.50;10.80;;;;;;;-144.89;100.00;52852.59;5038652;28;20045;-74
2021/12/31 02:11:20;;;;;;;170.75;9.95;;;;;;;-144.89;100.00;52852.59;5053516;28;20101;-75
2021/12/31 02:14:06;;;;;;;192.35;9.02;;;;;;;-144.89;100.00;52852.59;5052958;28;20045;-75
2021/12/31 02:16:51;;;;;;;203.45;10.00;;;;;;;-144.89;100.00;52852.59;5053565;28;20041;-75
2021/12/31 02:19:37;;;;;;;148.40;9.95;;;;;;;-144.89;100.00;52852.59;5052779;28;20037;-75
2021/12/31 02:22:27;;;;;;;242.77;12.02;;;;;;;-144.89;100.00;52852.59;5053429;28;20071;-75
2021/12/31 02:25:11;;;;;;;170.45;10.13;;;;;;;-144.89;100.00;52852.59;5052671;28;20070;-75
2021/12/31 02:27:56;;;;;;;309.70;15.20;;;;;;;-144.89;100.00;52852.59;5052629;28;20355;-75
2021/12/31 02:30:40;;;;;;;113.47;7.35;;;;;;;-144.89;100.00;52852.59;5053437;28;20102;-74
2021/12/31 02:33:25;;;;;;;172.02;10.45;;;;;;;-144.89;100.00;52852.59;5038604;28;20041;-75
2021/12/31 02:36:10;;;;;;;374.25;16.70;;;;;;;-144.89;100.00;52852.59;5052620;28;20052;-75
2021/12/31 02:38:55;;;;;;;185.90;10.73;;;;;;;-144.89;100.00;52852.59;5053177;28;20045;-74
2021/12/31 02:41:39;;;;;;;140.27;9.07;;;;;;;-144.89;100.00;52852.59;5052519;28;20060;-75
2021/12/31 02:44:23;;;;;;;163.77;8.55;;;;;;;-144.89;100.00;52852.59;5052339;28;20066;-75
2021/12/31 02:47:08;;;;;;;215.00;11.38;;;;;;;-144.89;100.00;52852.59;5038476;28;20112;-75
2021/12/31 02:49:53;;;;;;;261.15;12.68;;;;;;;-144.89;100.00;52852.59;5052455;28;20045;-75
2021/12/31 02:52:39;;;;;;;230.15;12.50;;;;;;;-144.89;100.00;52852.59;5053232;28;20435;-75
2021/12/31 02:55:25;;;;;;;115.35;9.02;;;;;;;-144.89;100.00;52852.59;5038159;28;20052;-75
2021/12/31 02:58:10;;;;;;;107.53;9.05;;;;;;;-144.89;100.00;52852.59;5052315;28;20048;-74
2021/12/31 03:00:55;;;;;;;108.88;8.43;;;;;;;-144.89;100.00;52852.59;5037976;28;20060;-75
2021/12/31 03:03:41;;;;;;;71.95;7.45;;;;;;;-144.89;100.00;52852.59;5024248;28;20145;-75
2021/12/31 03:06:27;;;;;;;279.75;13.35;;;;;;;-144.89;100.00;52852.59;5052123;28;20055;-75
2021/12/31 03:09:15;;;;;;;176.38;14.45;;;;;;;-144.89;100.00;52852.59;5052168;28;20120;-75
2021/12/31 03:12:01;;;;;;;99.40;11.98;;;;;;;-144.89;100.00;52852.59;5055537;28;20045;-75
2021/12/31 03:14:47;;;;;;;139.32;13.15;;;;;;;-144.89;100.00;52852.59;5058733;28;20395;-75
2021/12/31 03:17:33;;;;;;;121.30;11.15;;;;;;;-144.89;100.00;52852.59;5044617;28;20045;-75
2021/12/31 03:20:26;;;;;;;139.77;9.60;;;;;;;-144.89;100.00;52852.59;5059347;28;20071;-75
2021/12/31 03:23:10;;;;;;;167.90;10.90;;;;;;;-144.89;100.00;52852.59;5059184;28;20090;-75
2021/12/31 03:25:55;;;;;;;210.82;10.95;;;;;;;-144.89;100.00;52852.59;5044543;28;20037;-75
2021/12/31 03:28:39;;;;;;;175.38;11.20;;;;;;;-144.89;100.00;52852.59;5058743;28;20048;-75
2021/12/31 03:31:24;;;;;;;121.72;8.68;;;;;;;-144.89;100.00;52852.59;5044436;28;20037;-75
2021/12/31 03:34:10;;;;;;;203.48;11.98;;;;;;;-144.89;100.00;52852.59;5058463;28;20094;-75
2021/12/31 03:36:55;;;;;;;140.05;9.68;;;;;;;-144.89;100.00;52852.59;5058547;28;20048;-75
2021/12/31 03:39:40;;;;;;;223.07;13.00;;;;;;;-144.89;100.00;52852.59;5058620;28;20102;-75
2021/12/31 03:42:24;;;;;;;162.10;10.85;;;;;;;-144.89;100.00;52852.59;5044358;28;20097;-75
2021/12/31 03:45:10;;;;;;;133.38;8.60;;;;;;;-144.89;100.00;52852.59;5044059;28;20378;-75
2021/12/31 03:47:54;;;;;;;187.63;9.95;;;;;;;-144.89;100.00;52852.59;5058348;28;20045;-75
2021/12/31 03:50:38;;;;;;;137.00;8.40;;;;;;;-144.89;100.00;52852.59;5058181;28;20362;-75
2021/12/31 03:53:22;;;;;;;103.68;7.60;;;;;;;-144.89;100.00;52852.59;5058901;28;20062;-75
2021/12/31 03:56:07;;;;;;;201.82;12.20;;;;;;;-144.89;100.00;52852.59;5058315;28;20473;-75
2021/12/31 03:58:52;;;;;;;92.70;7.28;;;;;;;-144.89;100.00;52852.59;5058194;28;20112;-75
2021/12/31 04:01:36;;;;;;;36.10;5.60;;;;;;;-144.89;100.00;52852.59;5043927;28;20109;-75
2021/12/31 04:04:20;;;;;;;22.33;5.65;;;;;;;-144.89;100.00;52852.59;5058683;28;20041;-75
2021/12/31 04:07:05;;;;;;;15.63;5.28;;;;;;;-144.89;100.00;52852.59;5058084;28;20123;-75
2021/12/31 04:09:49;;;;;;;26.60;5.68;;;;;;;-144.89;100.00;52852.59;5058753;28;20080;-75
2021/12/31 04:12:35;;;;;;;27.00;5.10;;;;;;;-144.89;100.00;52852.59;5057859;28;20044;-75
2021/12/31 04:15:19;;;;;;;14.90;4.90;;;;;;;-144.89;100.00;52852.59;5043892;28;20045;-75
2021/12/31 04:18:03;;;;;;;8.35;5.38;;;;;;;-144.89;100.00;52852.59;5057894;28;20037;-75
2021/12/31 04:20:49;;;;;;;11.75;5.10;;;;;;;-144.89;100.00;52852.59;5058640;28;20460;-75
2021/12/31 04:23:47;;;;;;;7.10;4.82;;;;;;;-144.89;100.00;52852.59;5040553;28;20043;-75
2021/12/31 04:26:31;;;;;;;11.52;5.88;;;;;;;-144.89;100.00;52852.59;5055188;28;20041;-75
2021/12/31 04:29:16;;;;;;;17.58;5.55;;;;;;;-144.89;100.00;52852.59;5040520;28;20041;-75
2021/12/31 04:32:03;;;;;;;6.47;4.35;;;;;;;-144.89;100.00;52852.59;5055220;28;20080;-75
2021/12/31 04:34:48;;;;;;;6.80;3.95;;;;;;;-144.89;100.00;52852.59;5055219;28;20045;-75
2021/12/31 04:37:32;;;;;;;6.03;4.20;;;;;;;-144.89;100.00;52852.59;5054385;28;20052;-75
2021/12/31 04:40:17;;;;;;;4.40;3.72;;;;;;;-144.89;100.00;52852.59;5054365;28;20049;-75
2021/12/31 04:43:01;;;;;;;14.40;4.38;;;;;;;-144.89;100.00;52852.59;5055011;28;20433;-75
2021/12/31 04:45:45;;;;;;;9.20;3.70;;;;;;;-144.89;100.00;52852.59;5040272;28;20398;-75
2021/12/31 04:48:30;;;;;;;5.15;3.85;;;;;;;-144.89;100.00;52852.59;5054254;28;20048;-75
2021/12/31 04:51:14;;;;;;;5.15;4.05;;;;;;;-144.89;100.00;52852.59;5054828;28;20400;-75
2021/12/31 04:53:58;;;;;;;4.85;3.45;;;;;;;-144.89;100.00;52852.59;5040085;28;20045;-75
2021/12/31 04:56:44;;;;;;;4.88;3.50;;;;;;;-144.89;100.00;52852.59;5054810;28;20040;-75
2021/12/31 04:59:28;;;;;;;5.95;4.38;;;;;;;-144.89;100.00;52852.59;5054484;28;20355;-76
2021/12/31 05:02:13;;;;;;;4.45;3.28;;;;;;;-144.89;100.00;52852.59;5054726;28;20048;-75
2021/12/31 05:04:57;;;;;;;9.02;5.05;;;;;;;-144.89;100.00;52852.59;5054885;28;20419;-75
2021/12/31 05:07:42;;;;;;;4.63;3.20;;;;;;;-144.89;100.00;52852.59;5040021;28;20078;-75
2021/12/31 05:10:31;;;;;;;4.30;3.90;;;;;;;-144.89;100.00;52852.59;5053765;28;20052;-75
2021/12/31 05:13:15;;;;;;;5.65;3.53;;;;;;;-144.89;100.00;52852.59;5054559;28;20041;-75
2021/12/31 05:16:03;;;;;;;3.60;3.00;;;;;;;-144.89;100.00;52852.59;5053886;28;20117;-75
2021/12/31 05:18:47;;;;;;;4.95;3.60;;;;;;;-144.89;100.00;52852.59;5053803;28;20474;-75
2021/12/31 05:21:32;;;;;;;4.35;3.67;;;;;;;-144.89;100.00;52852.59;5054361;28;20056;-75
2021/12/31 05:24:17;;;;;;;3.67;2.88;;;;;;;-144.89;100.00;52852.59;5053771;28;20092;-75
2021/12/31 05:27:01;;;;;;;4.13;3.35;;;;;;;-144.89;100.00;52852.59;5054262;28;20045;-75
2021/12/31 05:29:46;;;;;;;8.05;4.57;;;;;;;-144.89;100.00;52852.59;5053630;28;20041;-75
2021/12/31 05:32:30;;;;;;;19.00;6.55;;;;;;;-144.89;100.00;52852.59;5054162;28;20044;-75
2021/12/31 05:35:15;;;;;;;50.65;9.88;;;;;;;-144.89;100.00;52852.59;5039325;28;20057;-75
2021/12/31 05:37:59;;;;;;;10.27;5.63;;;;;;;-144.89;100.00;52852.59;5025516;28;20060;-75
2021/12/31 05:40:43;;;;;;;9.35;5.43;;;;;;;-144.89;100.00;52852.59;5054318;28;20097;-75
2021/12/31 05:43:27;;;;;;;9.05;5.75;;;;;;;-144.89;100.00;52852.59;5054054;28;20033;-75
2021/12/31 05:46:12;;;;;;;9.20;6.30;;;;;;;-144.89;100.00;52852.59;5053260;28;20044;-75
2021/12/31 05:48:56;;;;;;;7.25;4.93;;;;;;;-144.89;100.00;52852.59;5054212;28;20044;-75
2021/12/31 05:51:40;;;;;;;4.90;3.72;;;;;;;-144.89;100.00;52852.59;5053956;28;20053;-75
2021/12/31 05:54:25;;;;;;;7.13;5.05;;;;;;;-144.89;100.00;52852.59;5053912;28;20037;-75
2021/12/31 05:57:09;;;;;;;7.03;4.93;;;;;;;-144.89;100.00;52852.59;5039299;28;20056;-75
2021/12/31 05:59:53;;;;;;;5.78;5.03;;;;;;;-144.89;100.00;52852.59;5052904;28;20069;-75
2021/12/31 06:02:39;;;;;;;7.63;5.43;;;;;;;-144.89;100.00;52852.59;5053721;28;20052;-75
2021/12/31 06:05:25;;;;;;;8.63;4.85;;;;;;;-144.89;100.00;52852.59;5053021;28;20045;-75
2021/12/31 06:08:10;;;;;;;8.05;4.10;;;;;;;-144.89;100.00;52852.59;5051783;28;20044;-75
2021/12/31 06:10:54;;;;;;;6.35;4.20;;;;;;;-144.89;100.00;52852.59;5052889;28;20106;-75
2021/12/31 06:13:38;;;;;;;11.20;4.82;;;;;;;-144.89;100.00;52852.59;5039002;28;20062;-75
2021/12/31 06:16:23;;;;;;;5.35;4.05;;;;;;;-144.89;100.00;52852.59;5053576;28;20041;-75
2021/12/31 06:19:09;;;;;;;10.15;4.78;;;;;;;-144.89;100.00;52852.59;5052924;28;20041;-75
2021/12/31 06:21:53;;;;;;;6.05;4.07;;;;;;;-144.89;100.00;52852.59;5038828;28;20049;-75
2021/12/31 06:24:38;;;;;;;6.43;3.97;;;;;;;-144.89;100.00;52852.59;5053433;28;20052;-75
2021/12/31 06:27:22;;;;;;;7.03;3.60;;;;;;;-144.89;100.00;52852.59;5053487;28;20427;-75
2021/12/31 06:30:07;;;;;;;12.50;4.50;;;;;;;-144.89;100.00;52852.59;5053376;28;20041;-75
2021/12/31 06:32:51;;;;;;;4.43;3.55;;;;;;;-144.89;100.00;52852.59;5053264;28;20123;-75
2021/12/31 06:35:36;;;;;;;7.60;4.32;;;;;;;-144.89;100.00;52852.59;5053286;28;20041;-75
2021/12/31 06:38:20;;;;;;;8.40;4.45;;;;;;;-144.89;100.00;52852.59;5038428;28;20041;-75
2021/12/31 06:41:05;;;;;;;7.05;4.25;;;;;;;-144.89;100.00;52852.59;5052623;28;20049;-75
2021/12/31 06:43:49;;;;;;;6.78;4.35;;;;;;;-144.89;100.00;52852.59;5053395;28;20086;-75
2021/12/31 06:46:33;;;;;;;8.40;4.93;;;;;;;-144.89;100.00;52852.59;5037497;28;20041;-75
2021/12/31 06:49:17;;;;;;;6.25;4.40;;;;;;;-144.89;100.00;52852.59;5053160;28;20139;-75
2021/12/31 06:52:03;;;;;;;6.93;4.65;;;;;;;-144.89;100.00;52852.59;5052347;28;20041;-75
2021/12/31 06:54:47;;;;;;;5.55;4.40;;;;;;;-144.89;100.00;52852.59;5038451;28;20037;-75
2021/12/31 06:57:32;;;;;;;7.15;4.25;;;;;;;-144.89;100.00;52852.59;5052307;28;20037;-75
2021/12/31 07:00:17;;;;;;;8.25;4.00;;;;;;;-144.89;100.00;52852.59;5052849;28;20060;-75
2021/12/31 07:03:06;;;;;;;7.93;4.00;;;;;;;-144.89;100.00;52852.59;5052219;28;20055;-74
2021/12/31 07:05:50;;;;;;;12.75;7.00;;;;;;;-144.89;100.00;52852.59;5038280;28;20430;-75
2021/12/31 07:08:35;;;;;;;18.77;11.68;;;;;;;-144.89;100.00;52852.59;5052810;28;20044;-75
2021/12/31 07:11:22;;;;;;;10.07;6.70;;;;;;;-144.89;100.00;52852.59;5052077;28;20350;-75
2021/12/31 07:14:06;;;;;;;5.85;5.22;;;;;;;-144.89;100.00;52852.59;5052787;28;20095;-75
2021/12/31 07:16:51;;;;;;;7.68;4.35;;;;;;;-144.89;100.00;52852.59;5052956;28;20044;-75
2021/12/31 07:19:36;;;;;;;5.95;4.20;;;;;;;-144.89;100.00;52852.59;5038121;28;20059;-75
2021/12/31 07:22:21;;;;;;;13.40;5.82;;;;;;;-144.89;100.00;52852.59;5052573;28;20067;-75
2021/12/31 07:25:06;;;;;;;9.70;7.88;;;;;;;-144.89;100.00;52852.59;5037750;28;20045;-75
2021/12/31 07:27:52;;;;;;;6.05;5.40;;;;;;;-144.89;100.00;52852.59;5052953;28;20041;-75
2021/12/31 07:30:38;;;;;;;6.53;4.97;;;;;;;-144.89;100.00;52852.59;5053129;28;20044;-75
2021/12/31 07:33:24;;;;;;;6.65;4.90;;;;;;;-144.89;100.00;52852.59;5051920;28;20155;-75
2021/12/31 07:36:09;;;;;;;7.20;4.88;;;;;;;-144.89;100.00;52852.59;5051964;28;20071;-75
2021/12/31 07:39:06;;;;;;;6.28;5.47;;;;;;;-144.89;100.00;52852.59;5052080;28;20052;-75
2021/12/31 07:41:51;;;;;;;9.82;6.72;;;;;;;-144.89;100.00;52852.59;5051711;28;20439;-74
2021/12/31 07:44:44;;;;;;;13.60;6.20;;;;;;;-144.89;100.00;52852.59;5052018;28;20098;-74
2021/12/31 07:47:29;;;;;;;11.13;6.40;;;;;;;-144.89;100.00;52852.59;5051732;28;20052;-75
2021/12/31 07:50:13;;;;;;;7.28;4.97;;;;;;;-144.89;100.00;52852.59;5038104;28;20041;-74
2021/12/31 07:52:58;;;;;;;8.25;6.03;;;;;;;-144.89;100.00;52852.59;5051910;28;20044;-75
2021/12/31 07:55:43;;;;;;;8.07;5.75;;;;;;;-144.89;100.00;52852.59;5052058;28;20049;-74
2021/12/31 07:58:28;;;;;;;7.60;5.55;;;;;;;-144.89;100.00;52852.59;5053685;28;20045;-75
2021/12/31 08:01:13;;;;;;;6.50;4.93;;;;;;;-144.89;100.00;52852.59;5054839;28;20053;-75
2021/12/31 08:03:57;;;;;;;8.48;5.25;;;;;;;-144.89;100.00;52852.59;5055292;28;20055;-75
2021/12/31 08:06:42;;;;;;;6.35;5.40;;;;;;;-144.89;100.00;52852.59;5054903;28;20045;-75
2021/12/31 08:09:26;;;;;;;8.38;6.15;;;;;;;-144.89;100.00;52852.59;5054684;28;20373;-75
2021/12/31 08:12:10;;;;;;;8.75;6.50;;;;;;;-144.89;100.00;52852.59;5041192;28;20037;-75
2021/12/31 08:14:55;;;;;;;9.60;6.80;;;;;;;-144.89;100.00;52852.59;5041116;28;20056;-74
2021/12/31 08:17:40;;;;;;;13.25;8.55;;;;;;;-144.89;100.00;52852.59;5054962;28;20049;-75
2021/12/31 08:20:25;;;;;;;7.22;6.18;;;;;;;-144.89;100.00;52852.59;5055188;28;20041;-75
2021/12/31 08:23:12;;;;;;;11.60;5.97;;;;;;;-144.89;100.00;52852.59;5055128;28;20116;-75
2021/12/31 08:25:56;;;;;;;9.32;6.68;;;;;;;-144.89;100.00;52852.59;5055517;28;20041;-76
2021/12/31 08:28:41;;;;;;;6.53;5.30;;;;;;;-144.89;100.00;52852.59;5055628;28;20041;-75
2021/12/31 08:31:25;;;;;;;6.10;4.97;;;;;;;-144.89;100.00;52852.59;5054933;28;20359;-75
2021/12/31 08:34:09;;;;;;;7.55;4.30;;;;;;;-144.89;100.00;52852.59;5054191;28;20044;-75
2021/12/31 08:36:54;;;;;;;6.47;5.00;;;;;;;-144.89;100.00;52852.59;5040232;28;20048;-75
2021/12/31 08:39:38;;;;;;;9.50;5.55;;;;;;;-144.89;100.00;52852.59;5054452;28;20068;-74
2021/12/31 08:42:22;;;;;;;38.83;22.52;;;;;;;-144.89;100.00;52852.59;5040209;28;20366;-75
2021/12/31 08:45:07;;;;;;;15.85;11.07;;;;;;;-144.89;100.00;52852.59;5054374;28;20040;-75
2021/12/31 08:47:51;;;;;;;11.27;8.35;;;;;;;-144.89;100.00;52852.59;5054177;28;20037;-75
2021/12/31 08:50:36;;;;;;;10.30;7.53;;;;;;;-144.89;100.00;52852.59;5054632;28;20108;-75
2021/12/31 08:53:20;;;;;;;8.38;5.60;;;;;;;-144.89;100.00;52852.59;5054989;28;20041;-75
2021/12/31 08:56:04;;;;;;;8.05;5.80;;;;;;;-144.89;100.00;52852.59;5040661;28;20045;-75
2021/12/31 08:58:49;;;;;;;7.95;4.90;;;;;;;-144.89;100.00;52852.59;5040625;28;20045;-75
2021/12/31 09:01:33;;;;;;;6.40;4.28;;;;;;;-144.89;100.00;52852.59;5054593;28;20348;-75
2021/12/31 09:04:18;;;;;;;9.25;5.55;;;;;;;-144.89;100.00;52852.59;5055044;28;20427;-75
2021/12/31 09:07:03;;;;;;;6.03;4.03;;;;;;;-144.89;100.00;52852.59;5053920;28;20053;-75
2021/12/31 09:09:48;;;;;;;6.22;4.20;;;;;;;-144.89;100.00;52852.59;5053535;28;20153;-75
2021/12/31 09:12:32;;;;;;;7.95;4.30;;;;;;;-144.89;100.00;52852.59;5054834;28;20049;-75
2021/12/31 09:15:17;;;;;;;21.77;13.43;;;;;;;-144.89;100.00;52852.59;5054634;28;20458;-75
2021/12/31 09:18:02;;;;;;;15.07;10.27;;;;;;;-144.89;100.00;52852.59;5055110;28;20064;-75
2021/12/31 09:20:47;;;;;;;14.70;8.40;;;;;;;-144.89;100.00;52852.59;5039872;28;20060;-75
2021/12/31 09:23:31;;;;;;;12.05;7.10;;;;;;;-144.89;100.00;52852.59;5054305;28;20037;-75
2021/12/31 09:26:16;;;;;;;12.10;6.22;;;;;;;-144.89;100.00;52852.59;5054485;28;20376;-75
2021/12/31 09:29:01;;;;;;;11.00;5.28;;;;;;;-144.89;100.00;52852.59;5053728;28;20101;-75
2021/12/31 09:31:46;;;;;;;8.32;3.90;;;;;;;-144.89;100.00;52852.59;5053839;28;20041;-75
2021/12/31 09:34:30;;;;;;;5.82;3.03;;;;;;;-144.89;100.00;52852.59;5040081;28;20169;-74
2021/12/31 09:37:15;;;;;;;5.78;3.40;;;;;;;-144.89;100.00;52852.59;5054287;28;20044;-75
2021/12/31 09:40:00;;;;;;;5.50;3.30;;;;;;;-144.89;100.00;52852.59;5039250;28;20533;-74
2021/12/31 09:42:51;;;;;;;6.20;2.97;;;;;;;-144.89;100.00;52852.59;5053469;28;20049;-75
2021/12/31 09:45:37;;;;;;;4.47;1.95;;;;;;;-144.89;100.00;52852.59;5054710;28;20037;-74
2021/12/31 09:52:41;;;;;;;5.47;2.28;;;;;;;11.22;100.00;99661.66;5155052;27;20396;-88
2021/12/31 09:55:44;;;;;;;6.72;3.38;;;;;;;10.98;100.00;99665.88;5138791;27;20039;-78
2021/12/31 09:58:29;;;;;;;4.15;1.73;;;;;;;11.04;100.00;99661.34;5153048;27;20059;-79
2021/12/31 10:01:14;;;;;;;3.78;2.10;;;;;;;11.05;100.00;99649.94;5167145;27;20039;-78
2021/12/31 10:04:02;;;;;;;6.53;2.83;;;;;;;11.12;100.00;99657.59;5137614;27;20126;-79
2021/12/31 10:07:10;;;;;;;4.32;2.50;;;;;;;11.29;100.00;99664.09;5134986;27;20055;-78
2021/12/31 10:10:15;;;;;;;3.45;2.15;;;;;;;11.20;100.00;99639.84;5152995;27;20066;-78
2021/12/31 10:13:00;;;;;;;7.05;3.17;;;;;;;11.38;100.00;99653.31;5152830;27;20050;-78
2021/12/31 10:15:49;;;;;;;8.25;4.05;;;;;;;11.39;100.00;99652.41;5123117;27;20062;-78
2021/12/31 10:18:38;;;;;;;5.35;3.05;;;;;;;11.34;100.00;99646.44;5152815;27;20050;-78
2021/12/31 10:21:34;;;;;;;4.88;3.10;;;;;;;11.46;100.00;99651.31;5152789;27;20618;-79
2021/12/31 10:24:36;;;;;;;4.88;3.08;;;;;;;11.36;100.00;99642.88;5139865;27;20039;-79
2021/12/31 10:27:20;;;;;;;4.88;3.10;;;;;;;11.37;100.00;99641.97;5124774;27;20043;-78
2021/12/31 10:30:07;;;;;;;7.00;4.70;;;;;;;11.36;100.00;99642.88;5124879;27;20096;-78
2021/12/31 10:32:52;;;;;;;11.05;6.32;;;;;;;11.45;100.00;99644.38;5139235;27;20111;-79
2021/12/31 10:35:47;;;;;;;9.15;5.82;;;;;;;11.45;100.00;99639.97;5139139;27;20035;-78
2021/12/31 10:38:36;;;;;;;11.52;7.45;;;;;;;11.53;100.00;99644.97;5139397;27;20049;-79
2021/12/31 10:41:21;;;;;;;10.48;7.35;;;;;;;11.38;100.00;99637.59;5139371;27;20198;-78
2021/12/31 10:44:06;;;;;;;6.80;5.13;;;;;;;11.51;100.00;99631.06;5154601;27;20066;-78
2021/12/31 10:47:08;;;;;;;6.05;4.22;;;;;;;11.59;100.00;99634.28;5139355;27;20034;-78
2021/12/31 10:49:55;;;;;;;33.08;23.38;;;;;;;11.59;100.00;99642.16;5139368;27;20418;-78
2021/12/31 10:52:52;;;;;;;30.38;27.13;;;;;;;11.52;100.00;99626.66;5154661;27;20039;-78
2021/12/31 10:55:44;;;;;;;29.13;24.70;;;;;;;11.48;100.00;99620.66;5138712;27;20035;-79
2021/12/31 10:58:28;;;;;;;9.45;7.65;;;;;;;11.50;100.00;99607.50;5154202;27;20035;-79
2021/12/31 11:01:15;;;;;;;6.65;4.63;;;;;;;11.64;100.00;99623.66;5154232;27;20047;-79
2021/12/31 11:04:01;;;;;;;8.27;4.55;;;;;;;11.73;100.00;99617.22;5110635;27;20042;-78
2021/12/31 11:06:45;;;;;;;6.18;3.08;;;;;;;11.84;100.00;99612.50;5107742;27;20066;-78
2021/12/31 11:09:32;;;;;;;4.55;2.38;;;;;;;11.83;100.00;99606.41;5140430;27;20046;-78
2021/12/31 11:12:17;;;;;;;7.32;4.43;;;;;;;11.90;100.00;99612.34;5124869;27;20046;-78
2021/12/31 11:15:04;;;;;;;4.07;2.03;;;;;;;11.81;100.00;99626.59;5125211;27;20420;-79
2021/12/31 11:17:52;;;;;;;4.90;2.95;;;;;;;11.72;100.00;99595.38;5110176;27;20059;-78
2021/12/31 11:20:38;;;;;;;6.97;3.00;;;;;;;11.90;100.00;99620.22;5140048;27;20039;-78
2021/12/31 11:23:29;;;;;;;6.05;3.30;;;;;;;11.87;100.00;99610.66;5124952;27;20062;-78
2021/12/31 11:26:25;;;;;;;9.63;6.15;;;;;;;11.96;100.00;99612.13;5124720;27;20047;-79
2021/12/31 11:29:18;;;;;;;10.07;5.45;;;;;;;11.99;100.00;99608.53;5139570;27;20115;-78
2021/12/31 11:32:03;;;;;;;;;;;;;;;12.01;100.00;99612.81;5125244;27;20043;-79
2021/12/31 11:35:25;;;;;;;15.05;9.30;;;;;;;12.04;100.00;99619.75;5092972;27;20357;-79
2021/12/31 11:38:22;;;;;;;33.28;18.10;;;;;;;12.05;100.00;99606.53;5109813;27;20039;-78
2021/12/31 11:41:11;;;;;;;33.70;17.08;;;;;;;12.09;100.00;99610.81;5124058;27;20059;-79
2021/12/31 11:44:07;;;;;;;38.15;19.88;;;;;;;11.95;100.00;99601.66;5124094;27;20035;-78
2021/12/31 11:47:12;;;;;;;33.97;17.25;;;;;;;12.07;100.00;99594.25;5124254;27;20122;-79
2021/12/31 11:50:22;;;;;;;26.45;13.88;;;;;;;11.97;100.00;99599.88;5089192;28;20039;-78
2021/12/31 11:53:06;;;;;;;40.55;20.00;;;;;;;11.90;100.00;99583.47;5101442;28;20119;-78
2021/12/31 11:55:51;;;;;;;50.25;22.50;;;;;;;11.73;100.00;99567.38;5101477;28;20433;-78
2021/12/31 11:58:40;;;;;;;55.85;25.55;;;;;;;11.75;100.00;99570.81;5101447;28;20039;-78
2021/12/31 12:01:37;;;;;;;62.35;26.88;;;;;;;11.65;100.00;99586.88;5116490;28;20454;-79
2021/12/31 12:04:28;;;;;;;47.85;21.38;;;;;;;11.69;100.00;99580.59;5084330;28;20116;-78
2021/12/31 12:07:36;;;;;;;53.08;24.30;;;;;;;11.67;100.00;99579.81;5101752;28;20089;-78
2021/12/31 12:10:24;;;;;;;44.45;22.33;;;;;;;11.73;100.00;99576.09;5102046;28;20040;-78
2021/12/31 12:13:26;;;;;;;52.50;25.95;;;;;;;11.68;100.00;99551.81;5087851;28;20040;-78
2021/12/31 12:16:10;;;;;;;27.98;13.88;;;;;;;11.60;100.00;99561.69;5101393;28;20043;-79
2021/12/31 12:18:55;;;;;;;21.83;12.07;;;;;;;11.53;100.00;99560.19;5101884;28;20039;-78
2021/12/31 12:21:39;;;;;;;28.77;15.73;;;;;;;11.52;100.00;99561.09;5116967;28;20047;-78
2021/12/31 12:24:24;;;;;;;27.58;16.48;;;;;;;11.51;100.00;99557.63;5102897;28;20036;-78
2021/12/31 12:27:13;;;;;;;16.40;10.23;;;;;;;11.44;100.00;99564.84;5088958;28;20101;-78
2021/12/31 12:30:00;;;;;;;23.85;13.52;;;;;;;11.40;100.00;99564.97;5102722;28;20420;-78
2021/12/31 12:35:33;;;;;;;40.65;25.48;;;;;;;11.24;100.00;99559.34;5117995;28;20430;-78
2021/12/31 12:38:21;;;;;;;31.02;19.70;;;;;;;11.21;100.00;99562.06;5102734;28;20040;-78
2021/12/31 12:41:09;;;;;;;23.45;14.25;;;;;;;11.16;100.00;99564.84;5117598;28;20043;-78